sensor_id;sensor_type;location;lat;lon;timestamp;temperature;humidity
53520;DHT22;39397;53.204;5.778;2023-06-10T00:00:34;16.30;99.90
53520;DHT22;39397;53.204;5.778;2023-06-10T00:03:01;16.40;99.90
53520;DHT22;39397;53.204;5.778;2023-06-10T00:05:27;16.30;99.90
53520;DHT22;39397;53.204;5.778;2023-06-10T00:07:56;16.40;99.90
53520;DHT22;39397;53.204;5.778;2023-06-10T00:10:22;16.30;99.90
53520;DHT22;39397;53.204;5.778;2023-06-10T00:12:48;16.40;99.90
53520;DHT22;39397;53.204;5.778;2023-06-10T00:15:14;16.40;99.90
53520;DHT22;39397;53.204;5.778;2023-06-10T00:17:39;16.30;99.90
53520;DHT22;39397;53.204;5.778;2023-06-10T00:20:10;16.40;99.90
53520;DHT22;39397;53.204;5.778;2023-06-10T00:22:39;16.40;99.90
53520;DHT22;39397;53.204;5.778;2023-06-10T00:25:07;16.40;99.90
53520;DHT22;39397;53.204;5.778;2023-06-10T00:27:34;16.30;99.90
53520;DHT22;39397;53.204;5.778;2023-06-10T00:30:04;16.20;99.90
53520;DHT22;39397;53.204;5.778;2023-06-10T00:32:36;16.40;99.90
53520;DHT22;39397;53.204;5.778;2023-06-10T00:35:02;16.40;99.90
53520;DHT22;39397;53.204;5.778;2023-06-10T00:37:28;16.40;99.90
53520;DHT22;39397;53.204;5.778;2023-06-10T00:39:55;16.50;99.90
53520;DHT22;39397;53.204;5.778;2023-06-10T00:42:20;16.40;99.90
53520;DHT22;39397;53.204;5.778;2023-06-10T00:44:50;16.50;99.90
53520;DHT22;39397;53.204;5.778;2023-06-10T00:47:16;16.50;99.90
53520;DHT22;39397;53.204;5.778;2023-06-10T00:49:43;16.40;99.90
53520;DHT22;39397;53.204;5.778;2023-06-10T00:52:09;16.40;99.90
53520;DHT22;39397;53.204;5.778;2023-06-10T00:54:37;16.40;99.90
53520;DHT22;39397;53.204;5.778;2023-06-10T00:57:04;16.30;99.90
53520;DHT22;39397;53.204;5.778;2023-06-10T00:59:31;15.80;99.90
53520;DHT22;39397;53.204;5.778;2023-06-10T01:01:57;16.10;99.90
53520;DHT22;39397;53.204;5.778;2023-06-10T01:04:23;16.10;99.90
53520;DHT22;39397;53.204;5.778;2023-06-10T01:07:21;16.20;99.90
53520;DHT22;39397;53.204;5.778;2023-06-10T01:09:56;16.00;99.90
53520;DHT22;39397;53.204;5.778;2023-06-10T01:12:41;16.00;99.90
53520;DHT22;39397;53.204;5.778;2023-06-10T01:15:12;16.10;99.90
53520;DHT22;39397;53.204;5.778;2023-06-10T01:17:59;15.90;99.90
53520;DHT22;39397;53.204;5.778;2023-06-10T01:20:27;16.00;99.90
53520;DHT22;39397;53.204;5.778;2023-06-10T01:22:57;15.90;99.90
53520;DHT22;39397;53.204;5.778;2023-06-10T01:25:24;15.90;99.90
53520;DHT22;39397;53.204;5.778;2023-06-10T01:36:01;15.80;99.90
53520;DHT22;39397;53.204;5.778;2023-06-10T01:38:32;15.70;99.90
53520;DHT22;39397;53.204;5.778;2023-06-10T01:40:59;15.70;99.90
53520;DHT22;39397;53.204;5.778;2023-06-10T01:43:26;15.70;99.90
53520;DHT22;39397;53.204;5.778;2023-06-10T01:45:51;15.60;99.90
53520;DHT22;39397;53.204;5.778;2023-06-10T01:48:17;15.60;99.90
53520;DHT22;39397;53.204;5.778;2023-06-10T01:50:45;15.60;99.90
53520;DHT22;39397;53.204;5.778;2023-06-10T01:53:11;15.60;99.90
53520;DHT22;39397;53.204;5.778;2023-06-10T01:55:37;15.90;99.90
53520;DHT22;39397;53.204;5.778;2023-06-10T01:58:03;15.50;99.90
53520;DHT22;39397;53.204;5.778;2023-06-10T02:00:28;15.40;99.90
53520;DHT22;39397;53.204;5.778;2023-06-10T02:02:54;15.70;99.90
53520;DHT22;39397;53.204;5.778;2023-06-10T02:05:19;15.80;99.90
53520;DHT22;39397;53.204;5.778;2023-06-10T02:07:45;15.40;99.90
53520;DHT22;39397;53.204;5.778;2023-06-10T02:10:14;15.40;99.90
53520;DHT22;39397;53.204;5.778;2023-06-10T02:12:39;15.40;99.90
53520;DHT22;39397;53.204;5.778;2023-06-10T02:15:05;15.30;99.90
53520;DHT22;39397;53.204;5.778;2023-06-10T02:17:31;15.30;99.90
53520;DHT22;39397;53.204;5.778;2023-06-10T02:19:58;15.20;99.90
53520;DHT22;39397;53.204;5.778;2023-06-10T02:22:25;15.20;99.90
53520;DHT22;39397;53.204;5.778;2023-06-10T02:24:51;15.20;99.90
53520;DHT22;39397;53.204;5.778;2023-06-10T02:27:17;15.10;99.90
53520;DHT22;39397;53.204;5.778;2023-06-10T02:29:43;15.00;99.90
53520;DHT22;39397;53.204;5.778;2023-06-10T02:32:09;15.20;99.90
53520;DHT22;39397;53.204;5.778;2023-06-10T02:34:38;14.90;99.90
53520;DHT22;39397;53.204;5.778;2023-06-10T02:37:06;14.80;99.90
53520;DHT22;39397;53.204;5.778;2023-06-10T02:39:32;14.90;99.90
53520;DHT22;39397;53.204;5.778;2023-06-10T02:41:58;14.80;99.90
53520;DHT22;39397;53.204;5.778;2023-06-10T02:44:24;14.80;99.90
53520;DHT22;39397;53.204;5.778;2023-06-10T02:46:49;14.70;99.90
53520;DHT22;39397;53.204;5.778;2023-06-10T02:49:16;14.70;99.90
53520;DHT22;39397;53.204;5.778;2023-06-10T02:51:41;14.70;99.90
53520;DHT22;39397;53.204;5.778;2023-06-10T02:54:07;14.60;99.90
53520;DHT22;39397;53.204;5.778;2023-06-10T02:56:33;14.50;99.90
53520;DHT22;39397;53.204;5.778;2023-06-10T02:58:59;16.40;99.90
53520;DHT22;39397;53.204;5.778;2023-06-10T03:01:25;14.50;99.90
53520;DHT22;39397;53.204;5.778;2023-06-10T03:03:51;14.40;99.90
53520;DHT22;39397;53.204;5.778;2023-06-10T03:06:18;14.50;99.90
53520;DHT22;39397;53.204;5.778;2023-06-10T03:08:43;14.30;99.90
53520;DHT22;39397;53.204;5.778;2023-06-10T03:11:11;14.40;99.90
53520;DHT22;39397;53.204;5.778;2023-06-10T03:13:38;14.30;99.90
53520;DHT22;39397;53.204;5.778;2023-06-10T03:16:05;14.30;99.90
53520;DHT22;39397;53.204;5.778;2023-06-10T03:18:33;14.20;99.90
53520;DHT22;39397;53.204;5.778;2023-06-10T03:20:59;14.10;99.90
53520;DHT22;39397;53.204;5.778;2023-06-10T03:23:25;14.20;99.90
53520;DHT22;39397;53.204;5.778;2023-06-10T03:25:52;14.00;99.90
53520;DHT22;39397;53.204;5.778;2023-06-10T03:28:20;14.10;99.90
53520;DHT22;39397;53.204;5.778;2023-06-10T03:30:47;14.10;99.90
53520;DHT22;39397;53.204;5.778;2023-06-10T03:33:13;14.10;99.90
53520;DHT22;39397;53.204;5.778;2023-06-10T03:35:39;15.20;99.90
53520;DHT22;39397;53.204;5.778;2023-06-10T03:38:05;14.00;99.90
53520;DHT22;39397;53.204;5.778;2023-06-10T03:40:31;14.20;99.90
53520;DHT22;39397;53.204;5.778;2023-06-10T03:42:57;14.20;99.90
53520;DHT22;39397;53.204;5.778;2023-06-10T03:45:23;14.20;99.90
53520;DHT22;39397;53.204;5.778;2023-06-10T03:47:50;14.10;99.90
53520;DHT22;39397;53.204;5.778;2023-06-10T03:50:16;14.20;99.90
53520;DHT22;39397;53.204;5.778;2023-06-10T03:52:42;14.20;99.90
53520;DHT22;39397;53.204;5.778;2023-06-10T03:55:07;14.30;99.90
53520;DHT22;39397;53.204;5.778;2023-06-10T03:57:33;14.30;99.90
53520;DHT22;39397;53.204;5.778;2023-06-10T03:59:59;14.20;99.90
53520;DHT22;39397;53.204;5.778;2023-06-10T04:02:24;14.30;99.90
53520;DHT22;39397;53.204;5.778;2023-06-10T04:04:50;14.30;99.90
53520;DHT22;39397;53.204;5.778;2023-06-10T04:07:17;14.30;99.90
53520;DHT22;39397;53.204;5.778;2023-06-10T04:09:44;14.30;99.90
53520;DHT22;39397;53.204;5.778;2023-06-10T04:12:10;14.40;99.90
53520;DHT22;39397;53.204;5.778;2023-06-10T04:14:36;14.30;99.90
53520;DHT22;39397;53.204;5.778;2023-06-10T04:17:04;14.40;99.90
53520;DHT22;39397;53.204;5.778;2023-06-10T04:19:32;14.30;99.90
53520;DHT22;39397;53.204;5.778;2023-06-10T04:22:00;14.50;99.90
53520;DHT22;39397;53.204;5.778;2023-06-10T04:24:25;14.40;99.90
53520;DHT22;39397;53.204;5.778;2023-06-10T04:26:51;14.50;99.90
53520;DHT22;39397;53.204;5.778;2023-06-10T04:29:17;14.60;99.90
53520;DHT22;39397;53.204;5.778;2023-06-10T04:31:43;14.60;99.90
53520;DHT22;39397;53.204;5.778;2023-06-10T04:34:09;14.70;99.90
53520;DHT22;39397;53.204;5.778;2023-06-10T04:36:34;14.60;99.90
53520;DHT22;39397;53.204;5.778;2023-06-10T04:39:00;14.60;99.90
53520;DHT22;39397;53.204;5.778;2023-06-10T04:41:27;12.90;99.90
53520;DHT22;39397;53.204;5.778;2023-06-10T04:43:52;14.70;99.90
53520;DHT22;39397;53.204;5.778;2023-06-10T04:46:19;14.70;99.90
53520;DHT22;39397;53.204;5.778;2023-06-10T04:48:44;14.90;99.90
53520;DHT22;39397;53.204;5.778;2023-06-10T04:51:12;14.90;99.90
53520;DHT22;39397;53.204;5.778;2023-06-10T04:53:39;14.90;99.90
53520;DHT22;39397;53.204;5.778;2023-06-10T04:56:04;15.10;99.90
53520;DHT22;39397;53.204;5.778;2023-06-10T04:58:30;15.00;99.90
53520;DHT22;39397;53.204;5.778;2023-06-10T05:00:56;15.00;99.90
53520;DHT22;39397;53.204;5.778;2023-06-10T05:03:21;15.20;99.90
53520;DHT22;39397;53.204;5.778;2023-06-10T05:05:47;15.20;99.90
53520;DHT22;39397;53.204;5.778;2023-06-10T05:08:13;15.10;99.90
53520;DHT22;39397;53.204;5.778;2023-06-10T05:10:38;15.30;99.90
53520;DHT22;39397;53.204;5.778;2023-06-10T05:13:04;15.20;99.90
53520;DHT22;39397;53.204;5.778;2023-06-10T05:15:30;15.40;99.90
53520;DHT22;39397;53.204;5.778;2023-06-10T05:17:59;15.40;99.90
53520;DHT22;39397;53.204;5.778;2023-06-10T05:20:25;15.50;99.90
53520;DHT22;39397;53.204;5.778;2023-06-10T05:22:52;15.60;99.90
53520;DHT22;39397;53.204;5.778;2023-06-10T05:25:17;15.70;99.90
53520;DHT22;39397;53.204;5.778;2023-06-10T05:27:43;15.70;99.90
53520;DHT22;39397;53.204;5.778;2023-06-10T05:30:10;15.80;99.90
53520;DHT22;39397;53.204;5.778;2023-06-10T05:32:36;15.80;99.90
53520;DHT22;39397;53.204;5.778;2023-06-10T05:35:02;15.90;99.90
53520;DHT22;39397;53.204;5.778;2023-06-10T05:37:29;16.00;99.90
53520;DHT22;39397;53.204;5.778;2023-06-10T05:39:55;16.10;99.90
53520;DHT22;39397;53.204;5.778;2023-06-10T05:42:20;16.20;99.90
53520;DHT22;39397;53.204;5.778;2023-06-10T05:44:46;16.30;99.90
53520;DHT22;39397;53.204;5.778;2023-06-10T05:47:12;16.30;99.90
53520;DHT22;39397;53.204;5.778;2023-06-10T05:49:37;16.40;99.90
53520;DHT22;39397;53.204;5.778;2023-06-10T05:52:03;16.40;99.90
53520;DHT22;39397;53.204;5.778;2023-06-10T05:54:29;16.50;99.90
53520;DHT22;39397;53.204;5.778;2023-06-10T05:56:55;16.50;99.90
53520;DHT22;39397;53.204;5.778;2023-06-10T05:59:20;16.50;99.90
53520;DHT22;39397;53.204;5.778;2023-06-10T06:01:48;16.70;99.90
53520;DHT22;39397;53.204;5.778;2023-06-10T06:04:15;16.80;99.90
53520;DHT22;39397;53.204;5.778;2023-06-10T06:06:41;16.80;99.90
53520;DHT22;39397;53.204;5.778;2023-06-10T06:09:07;16.90;99.90
53520;DHT22;39397;53.204;5.778;2023-06-10T06:11:34;17.00;99.90
53520;DHT22;39397;53.204;5.778;2023-06-10T06:14:00;17.10;99.90
53520;DHT22;39397;53.204;5.778;2023-06-10T06:16:25;17.10;99.90
53520;DHT22;39397;53.204;5.778;2023-06-10T06:18:51;17.20;99.90
53520;DHT22;39397;53.204;5.778;2023-06-10T06:21:17;17.20;99.90
53520;DHT22;39397;53.204;5.778;2023-06-10T06:23:42;17.20;99.90
53520;DHT22;39397;53.204;5.778;2023-06-10T06:26:08;17.50;99.90
53520;DHT22;39397;53.204;5.778;2023-06-10T06:28:34;17.40;99.90
53520;DHT22;39397;53.204;5.778;2023-06-10T06:31:00;17.50;99.90
53520;DHT22;39397;53.204;5.778;2023-06-10T06:33:25;17.60;99.90
53520;DHT22;39397;53.204;5.778;2023-06-10T06:35:52;17.80;99.90
53520;DHT22;39397;53.204;5.778;2023-06-10T06:38:17;17.80;99.90
53520;DHT22;39397;53.204;5.778;2023-06-10T06:40:43;17.80;99.90
53520;DHT22;39397;53.204;5.778;2023-06-10T06:43:09;18.00;99.90
53520;DHT22;39397;53.204;5.778;2023-06-10T06:45:37;18.00;99.90
53520;DHT22;39397;53.204;5.778;2023-06-10T06:48:04;18.50;99.90
53520;DHT22;39397;53.204;5.778;2023-06-10T06:50:30;18.10;99.90
53520;DHT22;39397;53.204;5.778;2023-06-10T06:52:56;18.10;99.90
53520;DHT22;39397;53.204;5.778;2023-06-10T06:55:22;18.40;99.90
53520;DHT22;39397;53.204;5.778;2023-06-10T06:57:47;20.50;99.90
53520;DHT22;39397;53.204;5.778;2023-06-10T07:00:13;18.50;99.90
53520;DHT22;39397;53.204;5.778;2023-06-10T07:02:39;18.60;99.90
53520;DHT22;39397;53.204;5.778;2023-06-10T07:05:05;18.80;99.90
53520;DHT22;39397;53.204;5.778;2023-06-10T07:07:31;19.10;99.90
53520;DHT22;39397;53.204;5.778;2023-06-10T07:09:57;19.00;99.90
53520;DHT22;39397;53.204;5.778;2023-06-10T07:12:23;19.10;99.90
53520;DHT22;39397;53.204;5.778;2023-06-10T07:14:50;19.10;99.90
53520;DHT22;39397;53.204;5.778;2023-06-10T07:17:17;19.50;99.90
53520;DHT22;39397;53.204;5.778;2023-06-10T07:19:46;20.00;99.90
53520;DHT22;39397;53.204;5.778;2023-06-10T07:22:12;20.00;99.90
53520;DHT22;39397;53.204;5.778;2023-06-10T07:24:41;19.40;99.90
53520;DHT22;39397;53.204;5.778;2023-06-10T07:27:06;19.40;99.90
53520;DHT22;39397;53.204;5.778;2023-06-10T07:29:32;19.60;99.90
53520;DHT22;39397;53.204;5.778;2023-06-10T07:31:58;19.80;99.90
53520;DHT22;39397;53.204;5.778;2023-06-10T07:34:24;19.90;99.90
53520;DHT22;39397;53.204;5.778;2023-06-10T07:36:50;20.00;99.90
53520;DHT22;39397;53.204;5.778;2023-06-10T07:39:15;20.10;99.90
53520;DHT22;39397;53.204;5.778;2023-06-10T07:41:41;20.20;99.90
53520;DHT22;39397;53.204;5.778;2023-06-10T07:44:07;18.80;99.90
53520;DHT22;39397;53.204;5.778;2023-06-10T07:46:35;20.10;99.90
53520;DHT22;39397;53.204;5.778;2023-06-10T07:49:01;21.50;99.90
53520;DHT22;39397;53.204;5.778;2023-06-10T07:51:27;20.20;99.90
53520;DHT22;39397;53.204;5.778;2023-06-10T07:53:53;20.30;99.90
53520;DHT22;39397;53.204;5.778;2023-06-10T07:56:18;20.40;99.90
53520;DHT22;39397;53.204;5.778;2023-06-10T07:58:46;20.50;99.90
53520;DHT22;39397;53.204;5.778;2023-06-10T08:01:11;20.60;99.90
53520;DHT22;39397;53.204;5.778;2023-06-10T08:03:37;20.70;99.90
53520;DHT22;39397;53.204;5.778;2023-06-10T08:06:03;20.90;99.90
53520;DHT22;39397;53.204;5.778;2023-06-10T08:08:29;20.90;99.90
53520;DHT22;39397;53.204;5.778;2023-06-10T08:10:54;21.10;99.90
53520;DHT22;39397;53.204;5.778;2023-06-10T08:13:20;21.10;99.90
53520;DHT22;39397;53.204;5.778;2023-06-10T08:15:47;21.30;99.90
53520;DHT22;39397;53.204;5.778;2023-06-10T08:18:13;21.30;99.90
53520;DHT22;39397;53.204;5.778;2023-06-10T08:20:39;21.20;99.90
53520;DHT22;39397;53.204;5.778;2023-06-10T08:23:04;21.40;99.90
53520;DHT22;39397;53.204;5.778;2023-06-10T08:25:30;21.50;99.90
53520;DHT22;39397;53.204;5.778;2023-06-10T08:27:56;21.60;99.90
53520;DHT22;39397;53.204;5.778;2023-06-10T08:30:23;21.60;99.60
53520;DHT22;39397;53.204;5.778;2023-06-10T08:32:49;21.70;99.10
53520;DHT22;39397;53.204;5.778;2023-06-10T08:35:14;21.80;98.70
53520;DHT22;39397;53.204;5.778;2023-06-10T08:37:40;21.70;98.60
53520;DHT22;39397;53.204;5.778;2023-06-10T08:40:06;21.90;98.80
53520;DHT22;39397;53.204;5.778;2023-06-10T08:42:38;22.00;98.60
53520;DHT22;39397;53.204;5.778;2023-06-10T08:45:07;22.10;98.70
53520;DHT22;39397;53.204;5.778;2023-06-10T08:47:39;22.40;97.80
53520;DHT22;39397;53.204;5.778;2023-06-10T08:50:07;22.50;97.00
53520;DHT22;39397;53.204;5.778;2023-06-10T08:52:37;22.40;96.50
53520;DHT22;39397;53.204;5.778;2023-06-10T08:55:05;22.50;95.80
53520;DHT22;39397;53.204;5.778;2023-06-10T08:57:36;22.50;95.10
53520;DHT22;39397;53.204;5.778;2023-06-10T09:00:03;22.60;95.10
53520;DHT22;39397;53.204;5.778;2023-06-10T09:02:29;22.80;94.70
53520;DHT22;39397;53.204;5.778;2023-06-10T09:04:56;22.80;94.50
53520;DHT22;39397;53.204;5.778;2023-06-10T09:07:23;22.80;93.80
53520;DHT22;39397;53.204;5.778;2023-06-10T09:09:49;22.90;93.50
53520;DHT22;39397;53.204;5.778;2023-06-10T09:12:15;22.80;93.30
53520;DHT22;39397;53.204;5.778;2023-06-10T09:14:42;23.10;93.10
53520;DHT22;39397;53.204;5.778;2023-06-10T09:17:08;23.00;93.30
53520;DHT22;39397;53.204;5.778;2023-06-10T09:19:35;23.20;92.60
53520;DHT22;39397;53.204;5.778;2023-06-10T09:22:02;23.30;92.20
53520;DHT22;39397;53.204;5.778;2023-06-10T09:24:28;23.30;92.20
53520;DHT22;39397;53.204;5.778;2023-06-10T09:27:07;23.30;92.00
53520;DHT22;39397;53.204;5.778;2023-06-10T09:29:55;23.30;91.50
53520;DHT22;39397;53.204;5.778;2023-06-10T09:32:21;23.30;91.70
53520;DHT22;39397;53.204;5.778;2023-06-10T09:34:47;23.40;91.00
53520;DHT22;39397;53.204;5.778;2023-06-10T09:37:22;23.50;90.80
53520;DHT22;39397;53.204;5.778;2023-06-10T09:40:07;23.70;91.00
53520;DHT22;39397;53.204;5.778;2023-06-10T09:42:34;23.80;90.30
53520;DHT22;39397;53.204;5.778;2023-06-10T09:45:05;23.80;89.20
53520;DHT22;39397;53.204;5.778;2023-06-10T09:47:31;24.50;89.10
53520;DHT22;39397;53.204;5.778;2023-06-10T09:49:56;24.00;89.50
53520;DHT22;39397;53.204;5.778;2023-06-10T09:52:26;24.20;90.10
53520;DHT22;39397;53.204;5.778;2023-06-10T09:54:53;24.20;88.70
53520;DHT22;39397;53.204;5.778;2023-06-10T09:57:21;24.30;90.20
53520;DHT22;39397;53.204;5.778;2023-06-10T09:59:46;24.30;89.30
53520;DHT22;39397;53.204;5.778;2023-06-10T10:02:18;24.30;89.10
53520;DHT22;39397;53.204;5.778;2023-06-10T10:04:44;24.40;89.10
53520;DHT22;39397;53.204;5.778;2023-06-10T10:07:11;24.40;87.20
53520;DHT22;39397;53.204;5.778;2023-06-10T10:09:41;24.60;85.50
53520;DHT22;39397;53.204;5.778;2023-06-10T10:12:15;24.50;84.80
53520;DHT22;39397;53.204;5.778;2023-06-10T10:14:46;25.00;83.70
53520;DHT22;39397;53.204;5.778;2023-06-10T10:17:14;24.60;83.50
53520;DHT22;39397;53.204;5.778;2023-06-10T10:19:46;24.60;83.10
53520;DHT22;39397;53.204;5.778;2023-06-10T10:22:26;24.70;83.90
53520;DHT22;39397;53.204;5.778;2023-06-10T10:25:00;25.00;83.00
53520;DHT22;39397;53.204;5.778;2023-06-10T10:27:30;25.10;84.50
53520;DHT22;39397;53.204;5.778;2023-06-10T10:29:58;27.50;84.70
53520;DHT22;39397;53.204;5.778;2023-06-10T10:32:37;25.30;81.70
53520;DHT22;39397;53.204;5.778;2023-06-10T10:35:08;25.40;82.00
53520;DHT22;39397;53.204;5.778;2023-06-10T10:37:35;25.30;81.90
53520;DHT22;39397;53.204;5.778;2023-06-10T10:40:01;25.30;81.00
53520;DHT22;39397;53.204;5.778;2023-06-10T10:42:28;25.40;80.40
53520;DHT22;39397;53.204;5.778;2023-06-10T10:44:55;25.50;81.30
53520;DHT22;39397;53.204;5.778;2023-06-10T10:47:21;25.70;82.20
53520;DHT22;39397;53.204;5.778;2023-06-10T10:49:51;25.70;82.40
53520;DHT22;39397;53.204;5.778;2023-06-10T10:52:19;25.70;82.40
53520;DHT22;39397;53.204;5.778;2023-06-10T10:54:46;25.80;82.20
53520;DHT22;39397;53.204;5.778;2023-06-10T10:57:20;25.80;82.00
53520;DHT22;39397;53.204;5.778;2023-06-10T11:05:05;25.90;80.20
53520;DHT22;39397;53.204;5.778;2023-06-10T11:07:32;25.80;81.80
53520;DHT22;39397;53.204;5.778;2023-06-10T11:10:11;25.90;81.90
53520;DHT22;39397;53.204;5.778;2023-06-10T11:12:41;25.90;79.80
53520;DHT22;39397;53.204;5.778;2023-06-10T11:15:07;25.90;81.20
53520;DHT22;39397;53.204;5.778;2023-06-10T11:17:33;26.00;79.50
53520;DHT22;39397;53.204;5.778;2023-06-10T11:19:59;26.00;79.00
53520;DHT22;39397;53.204;5.778;2023-06-10T11:22:25;26.10;79.50
53520;DHT22;39397;53.204;5.778;2023-06-10T11:24:52;26.00;79.10
53520;DHT22;39397;53.204;5.778;2023-06-10T11:27:23;26.30;77.50
53520;DHT22;39397;53.204;5.778;2023-06-10T11:32:33;26.20;77.30
53520;DHT22;39397;53.204;5.778;2023-06-10T11:35:03;26.30;77.90
53520;DHT22;39397;53.204;5.778;2023-06-10T11:37:29;25.60;75.80
53520;DHT22;39397;53.204;5.778;2023-06-10T11:39:55;26.80;75.80
53520;DHT22;39397;53.204;5.778;2023-06-10T11:42:22;26.40;75.50
53520;DHT22;39397;53.204;5.778;2023-06-10T11:44:49;26.40;75.80
53520;DHT22;39397;53.204;5.778;2023-06-10T11:47:15;26.60;76.30
53520;DHT22;39397;53.204;5.778;2023-06-10T11:49:41;26.70;75.80
53520;DHT22;39397;53.204;5.778;2023-06-10T11:52:07;26.80;75.20
53520;DHT22;39397;53.204;5.778;2023-06-10T11:54:32;26.90;75.80
53520;DHT22;39397;53.204;5.778;2023-06-10T11:56:59;26.80;76.60
53520;DHT22;39397;53.204;5.778;2023-06-10T11:59:33;27.00;78.90
53520;DHT22;39397;53.204;5.778;2023-06-10T12:01:59;26.90;81.80
53520;DHT22;39397;53.204;5.778;2023-06-10T12:04:25;26.90;83.70
53520;DHT22;39397;53.204;5.778;2023-06-10T12:06:55;26.80;83.50
53520;DHT22;39397;53.204;5.778;2023-06-10T12:17:20;26.50;86.50
53520;DHT22;39397;53.204;5.778;2023-06-10T12:19:47;26.30;88.70
53520;DHT22;39397;53.204;5.778;2023-06-10T12:22:13;26.50;89.90
53520;DHT22;39397;53.204;5.778;2023-06-10T12:25:06;26.50;90.00
53520;DHT22;39397;53.204;5.778;2023-06-10T12:27:33;26.70;89.90
53520;DHT22;39397;53.204;5.778;2023-06-10T12:30:00;26.60;90.10
53520;DHT22;39397;53.204;5.778;2023-06-10T12:35:03;26.40;91.00
53520;DHT22;39397;53.204;5.778;2023-06-10T12:37:32;26.40;91.10
53520;DHT22;39397;53.204;5.778;2023-06-10T12:40:01;26.10;91.10
53520;DHT22;39397;53.204;5.778;2023-06-10T12:42:45;26.10;91.70
53520;DHT22;39397;53.204;5.778;2023-06-10T12:45:11;25.70;91.80
53520;DHT22;39397;53.204;5.778;2023-06-10T12:47:38;25.70;92.10
53520;DHT22;39397;53.204;5.778;2023-06-10T12:50:05;25.70;92.20
53520;DHT22;39397;53.204;5.778;2023-06-10T12:52:31;25.70;92.20
53520;DHT22;39397;53.204;5.778;2023-06-10T12:54:58;25.80;92.40
53520;DHT22;39397;53.204;5.778;2023-06-10T12:57:24;25.80;92.40
53520;DHT22;39397;53.204;5.778;2023-06-10T12:59:50;25.70;92.50
53520;DHT22;39397;53.204;5.778;2023-06-10T13:02:21;25.60;92.50
53520;DHT22;39397;53.204;5.778;2023-06-10T13:04:49;25.70;92.70
53520;DHT22;39397;53.204;5.778;2023-06-10T13:07:15;25.70;92.90
53520;DHT22;39397;53.204;5.778;2023-06-10T13:09:42;25.70;93.00
53520;DHT22;39397;53.204;5.778;2023-06-10T13:12:08;25.90;92.70
53520;DHT22;39397;53.204;5.778;2023-06-10T13:14:34;25.90;92.60
53520;DHT22;39397;53.204;5.778;2023-06-10T13:17:00;25.90;92.70
53520;DHT22;39397;53.204;5.778;2023-06-10T13:19:25;25.80;92.50
53520;DHT22;39397;53.204;5.778;2023-06-10T13:21:54;25.90;92.30
53520;DHT22;39397;53.204;5.778;2023-06-10T13:24:20;25.70;92.30
53520;DHT22;39397;53.204;5.778;2023-06-10T13:26:46;25.90;92.60
53520;DHT22;39397;53.204;5.778;2023-06-10T13:29:11;25.80;92.50
53520;DHT22;39397;53.204;5.778;2023-06-10T13:31:40;25.60;92.60
53520;DHT22;39397;53.204;5.778;2023-06-10T13:34:06;25.60;93.00
53520;DHT22;39397;53.204;5.778;2023-06-10T13:36:32;25.50;93.00
53520;DHT22;39397;53.204;5.778;2023-06-10T13:38:58;25.50;93.20
53520;DHT22;39397;53.204;5.778;2023-06-10T13:41:23;25.60;93.30
53520;DHT22;39397;53.204;5.778;2023-06-10T13:43:50;25.70;93.10
53520;DHT22;39397;53.204;5.778;2023-06-10T13:46:15;25.70;93.00
53520;DHT22;39397;53.204;5.778;2023-06-10T13:48:41;25.60;93.00
53520;DHT22;39397;53.204;5.778;2023-06-10T13:51:07;25.80;92.90
53520;DHT22;39397;53.204;5.778;2023-06-10T13:53:34;25.70;92.90
53520;DHT22;39397;53.204;5.778;2023-06-10T13:56:00;25.50;92.90
53520;DHT22;39397;53.204;5.778;2023-06-10T13:58:26;25.50;93.20
53520;DHT22;39397;53.204;5.778;2023-06-10T14:00:52;25.70;93.30
53520;DHT22;39397;53.204;5.778;2023-06-10T14:03:18;25.70;93.10
53520;DHT22;39397;53.204;5.778;2023-06-10T14:05:44;25.60;93.20
53520;DHT22;39397;53.204;5.778;2023-06-10T14:08:09;25.70;93.30
53520;DHT22;39397;53.204;5.778;2023-06-10T14:10:35;25.80;93.40
53520;DHT22;39397;53.204;5.778;2023-06-10T14:13:01;25.70;93.10
53520;DHT22;39397;53.204;5.778;2023-06-10T14:15:26;25.70;93.30
53520;DHT22;39397;53.204;5.778;2023-06-10T14:17:52;25.90;93.30
53520;DHT22;39397;53.204;5.778;2023-06-10T14:20:18;25.90;93.10
53520;DHT22;39397;53.204;5.778;2023-06-10T14:22:44;26.10;92.80
53520;DHT22;39397;53.204;5.778;2023-06-10T14:25:09;26.20;93.00
53520;DHT22;39397;53.204;5.778;2023-06-10T14:27:37;26.30;93.00
53520;DHT22;39397;53.204;5.778;2023-06-10T14:30:03;26.70;92.60
53520;DHT22;39397;53.204;5.778;2023-06-10T14:32:31;26.80;92.00
53520;DHT22;39397;53.204;5.778;2023-06-10T14:34:56;27.20;92.00
53520;DHT22;39397;53.204;5.778;2023-06-10T14:37:22;27.30;91.50
53520;DHT22;39397;53.204;5.778;2023-06-10T14:39:48;27.40;91.50
53520;DHT22;39397;53.204;5.778;2023-06-10T14:42:13;27.60;91.20
53520;DHT22;39397;53.204;5.778;2023-06-10T14:44:39;27.80;90.70
53520;DHT22;39397;53.204;5.778;2023-06-10T14:47:05;28.00;90.30
53520;DHT22;39397;53.204;5.778;2023-06-10T14:49:31;27.80;89.90
53520;DHT22;39397;53.204;5.778;2023-06-10T14:51:56;27.90;90.20
53520;DHT22;39397;53.204;5.778;2023-06-10T14:54:22;28.00;90.00
53520;DHT22;39397;53.204;5.778;2023-06-10T14:56:49;28.20;90.30
53520;DHT22;39397;53.204;5.778;2023-06-10T14:59:15;28.20;90.00
53520;DHT22;39397;53.204;5.778;2023-06-10T15:01:40;28.20;89.80
53520;DHT22;39397;53.204;5.778;2023-06-10T15:04:06;28.40;89.70
53520;DHT22;39397;53.204;5.778;2023-06-10T15:06:32;28.70;89.20
53520;DHT22;39397;53.204;5.778;2023-06-10T15:08:57;28.90;88.80
53520;DHT22;39397;53.204;5.778;2023-06-10T15:11:23;29.00;87.40
53520;DHT22;39397;53.204;5.778;2023-06-10T15:13:49;29.10;87.80
53520;DHT22;39397;53.204;5.778;2023-06-10T15:16:15;29.20;87.20
53520;DHT22;39397;53.204;5.778;2023-06-10T15:18:41;29.30;86.70
53520;DHT22;39397;53.204;5.778;2023-06-10T15:21:06;29.40;86.70
53520;DHT22;39397;53.204;5.778;2023-06-10T15:23:32;29.50;86.20
53520;DHT22;39397;53.204;5.778;2023-06-10T15:25:58;29.30;86.30
53520;DHT22;39397;53.204;5.778;2023-06-10T15:28:24;29.20;86.60
53520;DHT22;39397;53.204;5.778;2023-06-10T15:30:49;29.40;86.70
53520;DHT22;39397;53.204;5.778;2023-06-10T15:33:15;29.40;85.90
53520;DHT22;39397;53.204;5.778;2023-06-10T15:35:41;29.60;85.90
53520;DHT22;39397;53.204;5.778;2023-06-10T15:38:06;29.60;85.50
53520;DHT22;39397;53.204;5.778;2023-06-10T15:40:32;29.60;85.10
53520;DHT22;39397;53.204;5.778;2023-06-10T15:42:58;29.80;84.50
53520;DHT22;39397;53.204;5.778;2023-06-10T15:45:23;29.80;83.80
53520;DHT22;39397;53.204;5.778;2023-06-10T15:47:49;29.80;83.80
53520;DHT22;39397;53.204;5.778;2023-06-10T15:50:15;29.90;83.60
53520;DHT22;39397;53.204;5.778;2023-06-10T15:52:41;30.00;83.30
53520;DHT22;39397;53.204;5.778;2023-06-10T15:55:07;29.90;83.20